createdAt,value
2022-10-31T00:01:26.836Z,10.87
2022-10-31T00:04:31.213Z,10.81
2022-10-31T00:07:34.327Z,10.78
2022-10-31T00:10:40.511Z,10.73
2022-10-31T00:13:43.565Z,10.67
2022-10-31T00:16:46.625Z,10.69
2022-10-31T00:19:51.084Z,10.67
2022-10-31T00:22:54.044Z,10.65
2022-10-31T00:26:02.467Z,10.69
2022-10-31T00:29:05.829Z,10.76
2022-10-31T00:32:08.871Z,10.67
2022-10-31T00:35:13.288Z,10.63
2022-10-31T00:38:16.261Z,10.59
2022-10-31T00:41:20.179Z,10.58
2022-10-31T00:44:25.484Z,10.57
2022-10-31T00:47:29.646Z,10.52
2022-10-31T00:50:35.033Z,10.52
2022-10-31T00:53:38.159Z,10.49
2022-10-31T00:56:42.885Z,10.43
2022-10-31T00:59:46.014Z,10.41
2022-10-31T01:02:49.040Z,10.39
2022-10-31T01:06:03.993Z,10.34
2022-10-31T01:09:09.674Z,10.36
2022-10-31T01:12:12.687Z,10.34
2022-10-31T01:15:21.522Z,10.34
2022-10-31T01:18:24.982Z,10.34
2022-10-31T01:21:31.204Z,10.33
2022-10-31T01:24:35.753Z,10.29
2022-10-31T01:27:39.375Z,10.25
2022-10-31T01:30:44.013Z,10.22
2022-10-31T01:33:47.207Z,10.20
2022-10-31T01:36:52.310Z,10.21
2022-10-31T01:39:55.591Z,10.22
2022-10-31T01:42:58.944Z,10.20
2022-10-31T01:46:02.229Z,10.16
2022-10-31T01:49:10.467Z,10.18
2022-10-31T01:52:23.119Z,10.17
2022-10-31T01:55:31.060Z,10.13
2022-10-31T01:58:34.429Z,10.10
2022-10-31T02:01:40.711Z,10.10
2022-10-31T02:04:44.913Z,10.08
2022-10-31T02:07:57.182Z,10.06
2022-10-31T02:11:05.600Z,10.04
2022-10-31T02:14:08.660Z,10.06
2022-10-31T02:17:11.833Z,10.05
2022-10-31T02:20:19.849Z,10.03
2022-10-31T02:24:23.887Z,9.98
2022-10-31T02:27:54.398Z,9.99
2022-10-31T02:31:14.602Z,9.99
2022-10-31T02:34:22.530Z,9.99
2022-10-31T02:37:34.025Z,9.98
2022-10-31T02:40:56.144Z,10.00
2022-10-31T02:44:18.428Z,9.99
2022-10-31T02:47:28.697Z,9.95
2022-10-31T02:50:35.363Z,9.96
2022-10-31T02:53:40.669Z,9.97
2022-10-31T02:56:47.439Z,9.94
2022-10-31T02:59:55.753Z,9.96
2022-10-31T03:03:11.311Z,9.91
2022-10-31T03:06:21.265Z,9.85
2022-10-31T03:09:30.382Z,9.83
2022-10-31T03:12:44.530Z,9.77
2022-10-31T03:15:53.850Z,9.77
2022-10-31T03:19:03.516Z,9.75
2022-10-31T03:22:14.295Z,9.71
2022-10-31T03:25:18.879Z,9.68
2022-10-31T03:28:29.044Z,9.69
2022-10-31T03:31:38.618Z,9.63
2022-10-31T03:34:46.341Z,9.67
2022-10-31T03:37:51.825Z,9.66
2022-10-31T03:40:58.053Z,9.65
2022-10-31T03:44:07.079Z,9.67
2022-10-31T03:47:10.895Z,9.68
2022-10-31T03:50:17.403Z,9.76
2022-10-31T03:53:28.329Z,9.75
2022-10-31T03:56:37.395Z,9.79
2022-10-31T03:59:45.904Z,9.78
2022-10-31T04:03:00.108Z,9.77
2022-10-31T04:06:11.204Z,9.83
2022-10-31T04:09:17.870Z,9.83
2022-10-31T04:12:22.654Z,9.80
2022-10-31T04:15:38.433Z,9.82
2022-10-31T04:18:41.397Z,9.78
2022-10-31T04:21:45.694Z,9.76
2022-10-31T04:24:48.670Z,9.76
2022-10-31T04:27:54.069Z,9.79
2022-10-31T04:30:57.195Z,9.83
2022-10-31T04:34:00.288Z,9.80
2022-10-31T04:37:04.668Z,9.74
2022-10-31T04:40:11.249Z,9.72
2022-10-31T04:43:32.718Z,9.75
2022-10-31T04:46:37.299Z,9.75
2022-10-31T04:49:40.361Z,9.74
2022-10-31T04:52:47.837Z,9.77
2022-10-31T04:55:54.137Z,9.76
2022-10-31T04:58:59.529Z,9.73
2022-10-31T05:02:05.376Z,9.70
2022-10-31T05:05:25.417Z,9.69
2022-10-31T05:08:29.774Z,9.67
2022-10-31T05:11:33.366Z,9.63
2022-10-31T05:14:48.582Z,9.65
2022-10-31T05:18:10.618Z,9.61
2022-10-31T05:21:36.292Z,9.62
2022-10-31T05:24:41.450Z,9.65
2022-10-31T05:27:48.728Z,9.63
2022-10-31T05:30:52.082Z,9.59
2022-10-31T05:33:55.265Z,9.56
2022-10-31T05:37:27.177Z,9.62
2022-10-31T05:40:31.561Z,9.61
2022-10-31T05:43:34.514Z,9.64
2022-10-31T05:46:41.624Z,9.59
2022-10-31T05:50:04.473Z,9.61
2022-10-31T05:53:22.266Z,9.67
2022-10-31T05:56:26.779Z,9.65
2022-10-31T05:59:30.104Z,9.64
2022-10-31T06:02:35.406Z,9.64
2022-10-31T06:06:16.953Z,9.72
2022-10-31T06:09:20.100Z,9.74
2022-10-31T06:12:24.916Z,9.76
2022-10-31T06:15:51.901Z,9.75
2022-10-31T06:18:58.781Z,9.77
2022-10-31T06:22:01.726Z,9.80
2022-10-31T06:25:06.303Z,9.87
2022-10-31T06:28:14.736Z,9.85
2022-10-31T06:31:28.974Z,9.88
2022-10-31T06:34:32.466Z,9.88
2022-10-31T06:37:35.456Z,9.88
2022-10-31T06:41:05.377Z,9.88
2022-10-31T06:44:26.144Z,9.91
2022-10-31T06:47:31.996Z,9.96
2022-10-31T06:50:43.748Z,10.00
2022-10-31T06:53:47.087Z,10.00
2022-10-31T06:56:52.832Z,10.10
2022-10-31T06:59:57.174Z,10.10
2022-10-31T07:03:21.147Z,10.14
2022-10-31T07:06:24.646Z,10.22
2022-10-31T07:09:30.690Z,10.34
2022-10-31T07:12:37.751Z,10.43
2022-10-31T07:15:44.044Z,10.57
2022-10-31T07:18:47.014Z,10.62
2022-10-31T07:21:50.062Z,10.72
2022-10-31T07:24:53.256Z,10.91
2022-10-31T07:28:19.195Z,11.08
2022-10-31T07:31:27.853Z,11.35
2022-10-31T07:34:35.074Z,11.85
2022-10-31T07:37:55.606Z,12.08
2022-10-31T07:40:59.098Z,12.29
2022-10-31T07:44:05.507Z,12.62
2022-10-31T07:47:42.911Z,12.95
2022-10-31T07:51:04.564Z,13.07
2022-10-31T07:54:33.106Z,13.33
2022-10-31T07:57:37.545Z,13.39
2022-10-31T08:00:42.653Z,13.52
2022-10-31T08:03:47.844Z,13.52
2022-10-31T08:07:09.538Z,13.56
2022-10-31T08:10:14.985Z,13.65
2022-10-31T08:13:17.929Z,13.68
2022-10-31T08:16:24.065Z,13.74
2022-10-31T08:19:35.143Z,13.77
2022-10-31T08:22:42.812Z,13.78
2022-10-31T08:25:47.928Z,13.82
2022-10-31T08:28:51.492Z,13.84
2022-10-31T08:31:56.880Z,13.89
2022-10-31T08:35:19.739Z,13.89
2022-10-31T08:38:41.127Z,13.91
2022-10-31T08:41:46.293Z,13.89
2022-10-31T08:44:49.845Z,13.93
2022-10-31T08:47:59.035Z,13.88
2022-10-31T08:51:03.821Z,13.87
2022-10-31T08:54:07.730Z,13.93
2022-10-31T08:57:33.546Z,13.96
2022-10-31T09:00:37.326Z,13.97
2022-10-31T09:03:47.650Z,14.11
2022-10-31T09:07:19.774Z,14.07
2022-10-31T09:10:15.192Z,14.09
2022-10-31T09:13:22.411Z,14.18
2022-10-31T09:16:46.398Z,14.29
2022-10-31T09:19:56.109Z,14.36
2022-10-31T09:23:13.257Z,14.41
2022-10-31T09:26:16.246Z,14.45
2022-10-31T09:29:33.064Z,14.52
2022-10-31T09:32:37.764Z,14.64
2022-10-31T09:35:43.381Z,14.77
2022-10-31T09:38:47.806Z,14.75
2022-10-31T09:42:06.578Z,14.84
2022-10-31T09:45:18.328Z,14.95
2022-10-31T09:48:51.149Z,15.12
2022-10-31T09:52:02.706Z,15.21
2022-10-31T09:55:17.883Z,15.31
2022-10-31T09:58:25.490Z,15.23
2022-10-31T10:01:39.001Z,15.28
2022-10-31T10:04:46.791Z,15.18
2022-10-31T10:08:02.676Z,15.15
2022-10-31T10:11:49.102Z,15.15
2022-10-31T10:15:19.368Z,15.23
2022-10-31T10:18:33.365Z,15.33
2022-10-31T10:21:48.802Z,15.52
2022-10-31T10:25:17.465Z,15.54
2022-10-31T10:28:27.514Z,15.55
2022-10-31T10:31:37.284Z,15.59
2022-10-31T10:34:46.734Z,15.63
2022-10-31T10:37:54.594Z,15.57
2022-10-31T10:40:57.918Z,15.65
2022-10-31T10:44:02.314Z,15.63
2022-10-31T10:47:23.127Z,15.81
2022-10-31T10:50:37.659Z,16.02
2022-10-31T10:54:04.104Z,16.24
2022-10-31T10:57:24.591Z,16.53
2022-10-31T11:00:32.536Z,16.82
2022-10-31T11:03:37.575Z,16.91
2022-10-31T11:06:40.800Z,17.22
2022-10-31T11:09:43.887Z,17.41
2022-10-31T11:13:02.319Z,17.54
2022-10-31T11:16:11.259Z,17.72
2022-10-31T11:19:20.950Z,17.46
2022-10-31T11:22:26.372Z,17.32
2022-10-31T11:25:29.591Z,17.31
2022-10-31T11:28:35.905Z,17.32
2022-10-31T11:31:40.424Z,17.41
2022-10-31T11:34:46.903Z,17.33
2022-10-31T11:37:54.351Z,17.45
2022-10-31T11:41:11.315Z,17.69
2022-10-31T11:44:18.650Z,17.93
2022-10-31T11:47:28.680Z,18.17
2022-10-31T11:50:37.883Z,18.33
2022-10-31T11:53:56.792Z,18.58
2022-10-31T11:57:03.876Z,18.83
2022-10-31T12:00:25.108Z,18.94
2022-10-31T12:03:51.005Z,19.06
2022-10-31T12:06:55.653Z,18.91
2022-10-31T12:09:59.453Z,19.22
2022-10-31T12:13:13.424Z,19.44
2022-10-31T12:16:35.003Z,19.51
2022-10-31T12:19:53.890Z,19.72
2022-10-31T12:23:07.527Z,19.66
2022-10-31T12:26:23.024Z,19.30
2022-10-31T12:29:46.205Z,19.51
2022-10-31T12:33:13.357Z,19.55
2022-10-31T12:36:39.944Z,19.27
2022-10-31T12:39:52.076Z,19.49
2022-10-31T12:43:08.876Z,19.34
2022-10-31T12:46:24.393Z,19.36
2022-10-31T12:49:43.869Z,19.46
2022-10-31T12:53:04.665Z,19.48
2022-10-31T12:56:26.010Z,19.39
2022-10-31T12:59:35.732Z,19.38
2022-10-31T13:02:45.670Z,19.45
2022-10-31T13:05:54.468Z,19.43
2022-10-31T13:09:02.986Z,19.28
2022-10-31T13:12:13.274Z,19.44
2022-10-31T13:15:21.267Z,19.71
2022-10-31T13:18:32.951Z,19.47
2022-10-31T13:21:43.083Z,19.46
2022-10-31T13:24:56.940Z,19.73
2022-10-31T13:28:04.933Z,19.62
2022-10-31T13:31:07.894Z,19.82
2022-10-31T13:34:20.848Z,20.05
2022-10-31T13:37:33.315Z,19.88
2022-10-31T13:40:46.691Z,19.99
2022-10-31T13:44:03.996Z,19.93
2022-10-31T13:47:28.519Z,20.03
2022-10-31T13:50:33.296Z,19.79
2022-10-31T13:53:46.399Z,19.79
2022-10-31T13:56:53.465Z,19.66
2022-10-31T14:00:01.898Z,19.71
2022-10-31T14:03:36.272Z,19.48
2022-10-31T14:06:58.134Z,19.49
2022-10-31T14:10:06.183Z,19.46
2022-10-31T14:13:17.504Z,19.28
2022-10-31T14:16:25.700Z,19.07
2022-10-31T14:19:29.078Z,19.07
2022-10-31T14:22:36.340Z,19.04
2022-10-31T14:25:43.145Z,18.89
2022-10-31T14:28:49.298Z,18.74
2022-10-31T14:31:58.388Z,18.66
2022-10-31T14:35:01.942Z,18.54
2022-10-31T14:38:30.372Z,18.49
2022-10-31T14:41:54.297Z,18.28
2022-10-31T14:45:28.048Z,18.20
2022-10-31T14:49:13.494Z,18.04
2022-10-31T14:52:19.104Z,18.00
2022-10-31T14:55:23.986Z,17.90
2022-10-31T15:01:58.283Z,17.46
2022-10-31T15:05:03.009Z,17.30
2022-10-31T15:08:06.919Z,17.23
2022-10-31T15:11:15.339Z,17.11
2022-10-31T15:14:27.566Z,16.88
2022-10-31T15:17:32.009Z,16.85
2022-10-31T15:20:46.241Z,16.85
2022-10-31T15:23:49.846Z,16.80
2022-10-31T15:26:56.314Z,16.79
2022-10-31T15:30:00.261Z,16.75
2022-10-31T15:33:04.541Z,16.62
2022-10-31T15:36:08.354Z,16.58
2022-10-31T15:39:13.041Z,16.41
2022-10-31T15:42:23.039Z,16.32
2022-10-31T15:45:28.966Z,16.18
2022-10-31T15:48:35.392Z,16.15
2022-10-31T15:51:39.814Z,16.07
2022-10-31T15:54:50.847Z,16.02
2022-10-31T15:57:57.754Z,15.93
2022-10-31T16:01:03.382Z,15.90
2022-10-31T16:04:24.597Z,15.97
2022-10-31T16:07:28.911Z,15.94
2022-10-31T16:10:36.245Z,15.85
2022-10-31T16:13:44.159Z,15.85
2022-10-31T16:16:52.925Z,15.76
2022-10-31T16:20:01.064Z,15.67
2022-10-31T16:23:04.566Z,15.65
2022-10-31T16:26:08.982Z,15.64
2022-10-31T16:29:28.430Z,15.65
2022-10-31T16:32:37.185Z,15.57
2022-10-31T16:35:41.853Z,15.44
2022-10-31T16:38:44.826Z,15.32
2022-10-31T16:41:52.258Z,15.39
2022-10-31T16:44:55.216Z,15.35
2022-10-31T16:48:06.718Z,15.27
2022-10-31T16:51:11.069Z,15.18
2022-10-31T16:54:14.043Z,15.06
2022-10-31T16:57:22.311Z,15.01
2022-10-31T17:00:27.918Z,14.99
2022-10-31T17:03:31.171Z,14.93
2022-10-31T17:06:36.830Z,14.83
2022-10-31T17:09:39.822Z,14.77
2022-10-31T17:12:46.143Z,14.72
2022-10-31T17:15:52.966Z,14.69
2022-10-31T17:18:55.921Z,14.60
2022-10-31T17:22:00.193Z,14.57
2022-10-31T17:25:03.604Z,14.52
2022-10-31T17:28:06.912Z,14.46
2022-10-31T17:31:22.605Z,14.44
2022-10-31T17:34:25.551Z,14.40
2022-10-31T17:37:29.814Z,14.35
2022-10-31T17:40:33.354Z,14.33
2022-10-31T17:43:36.568Z,14.31
2022-10-31T17:46:40.063Z,14.30
2022-10-31T17:49:43.106Z,14.29
2022-10-31T17:52:47.470Z,14.23
2022-10-31T17:55:50.463Z,14.21
2022-10-31T17:58:53.444Z,14.22
2022-10-31T18:01:56.898Z,14.16
2022-10-31T18:05:02.343Z,14.23
2022-10-31T18:08:07.582Z,14.07
2022-10-31T18:11:14.568Z,14.08
2022-10-31T18:14:17.616Z,14.00
2022-10-31T18:17:21.023Z,13.95
2022-10-31T18:20:23.964Z,13.95
2022-10-31T18:23:28.216Z,13.94
2022-10-31T18:26:31.136Z,13.97
2022-10-31T18:29:34.121Z,13.95
2022-10-31T18:32:37.034Z,13.91
2022-10-31T18:35:40.799Z,13.82
2022-10-31T18:38:45.873Z,13.81
2022-10-31T18:41:48.868Z,13.77
2022-10-31T18:44:51.875Z,13.83
2022-10-31T18:47:55.412Z,13.84
2022-10-31T18:50:58.695Z,13.76
2022-10-31T18:54:03.285Z,13.67
2022-10-31T18:57:06.285Z,13.63
2022-10-31T19:00:10.749Z,13.58
2022-10-31T19:03:14.126Z,13.50
2022-10-31T19:06:17.095Z,13.51
2022-10-31T19:09:21.426Z,13.51
2022-10-31T19:12:24.573Z,13.42
2022-10-31T19:15:27.567Z,13.43
2022-10-31T19:18:30.621Z,13.38
2022-10-31T19:21:33.772Z,13.33
2022-10-31T19:24:38.058Z,13.37
2022-10-31T19:27:41.172Z,13.36
2022-10-31T19:30:44.467Z,13.38
2022-10-31T19:33:47.865Z,13.35
2022-10-31T19:36:50.821Z,13.32
2022-10-31T19:39:55.736Z,13.28
2022-10-31T19:43:00.102Z,13.22
2022-10-31T19:46:05.042Z,13.17
2022-10-31T19:49:08.143Z,13.13
2022-10-31T19:52:11.347Z,13.08
2022-10-31T19:55:16.061Z,13.04
2022-10-31T19:58:19.125Z,13.01
2022-10-31T20:01:24.659Z,12.99
2022-10-31T20:04:27.807Z,12.98
2022-10-31T20:07:30.931Z,12.93
2022-10-31T20:10:35.298Z,12.91
2022-10-31T20:13:38.353Z,12.95
2022-10-31T20:16:41.391Z,12.94
2022-10-31T20:19:44.425Z,12.95
2022-10-31T20:22:49.774Z,12.92
2022-10-31T20:25:54.251Z,12.89
2022-10-31T20:28:58.790Z,12.86
2022-10-31T20:32:02.052Z,12.81
2022-10-31T20:35:05.458Z,12.82
2022-10-31T20:38:09.130Z,12.83
2022-10-31T20:41:15.062Z,12.83
2022-10-31T20:44:19.205Z,12.82
2022-10-31T20:47:24.886Z,12.78
2022-10-31T20:50:28.924Z,12.78
2022-10-31T20:53:32.616Z,12.72
2022-10-31T20:56:36.989Z,12.81
2022-10-31T20:59:40.060Z,12.80
2022-10-31T21:02:44.439Z,12.88
2022-10-31T21:05:54.609Z,12.90
2022-10-31T21:08:58.431Z,12.87
2022-10-31T21:12:02.680Z,12.93
2022-10-31T21:15:06.285Z,12.84
2022-10-31T21:18:09.542Z,12.78
2022-10-31T21:21:15.141Z,12.76
2022-10-31T21:24:20.403Z,12.75
2022-10-31T21:27:24.853Z,12.68
2022-10-31T21:30:27.861Z,12.74
2022-10-31T21:33:30.934Z,12.80
2022-10-31T21:36:34.457Z,12.89
2022-10-31T21:39:38.511Z,12.96
2022-10-31T21:42:42.753Z,13.02
2022-10-31T21:45:45.821Z,13.05
2022-10-31T21:48:49.585Z,13.03
2022-10-31T21:51:52.507Z,13.06
2022-10-31T21:54:55.477Z,13.09
2022-10-31T21:58:00.033Z,13.02
2022-10-31T22:01:04.343Z,13.00
2022-10-31T22:04:07.995Z,12.98
2022-10-31T22:07:11.395Z,12.94
2022-10-31T22:10:14.506Z,12.97
2022-10-31T22:13:18.980Z,12.97
2022-10-31T22:16:24.807Z,12.99
2022-10-31T22:19:27.825Z,12.92
2022-10-31T22:22:30.905Z,13.00
2022-10-31T22:25:36.931Z,12.99
2022-10-31T22:28:42.401Z,13.04
2022-10-31T22:31:50.567Z,12.89
2022-10-31T22:34:58.919Z,12.82
2022-10-31T22:38:02.113Z,12.72
2022-10-31T22:41:05.067Z,12.63
2022-10-31T22:44:09.957Z,12.64
2022-10-31T22:47:12.992Z,12.79
2022-10-31T22:50:16.018Z,12.92
2022-10-31T22:53:19.227Z,12.93
2022-10-31T22:56:24.900Z,12.94
2022-10-31T22:59:29.405Z,12.96
2022-10-31T23:02:32.353Z,12.95
2022-10-31T23:05:35.278Z,12.92
2022-10-31T23:08:39.393Z,12.88
2022-10-31T23:11:42.778Z,12.83
2022-10-31T23:14:46.197Z,12.80
2022-10-31T23:17:49.283Z,12.83
2022-10-31T23:20:52.916Z,12.82
2022-10-31T23:23:57.814Z,12.85
2022-10-31T23:27:11.677Z,12.84
2022-10-31T23:30:16.332Z,12.86
2022-10-31T23:33:19.374Z,12.88
2022-10-31T23:36:22.481Z,12.84
2022-10-31T23:39:25.617Z,12.87
2022-10-31T23:42:29.705Z,12.86
2022-10-31T23:45:34.453Z,12.91
2022-10-31T23:48:37.437Z,12.92
2022-10-31T23:51:42.115Z,12.93
2022-10-31T23:54:45.392Z,12.93
2022-10-31T23:57:48.458Z,12.93
